This is the latest recevied weather packets stored in our database for station/object W0VI. If no packets are shown the sender has not sent any weather packets the latest 10 day(s).
| Time | Temp. | Humidity | Pressure | Rain* | Wind** | Luminosity | Snow |
|---|---|---|---|---|---|---|---|
| 1787947416 | 26.67° C | 47% | 1018.5 hPa | 0 mm | - | 264 W/m² | - |
| 1787947116 | 26.67° C | 48% | 1018.7 hPa | 0 mm | - | 346 W/m² | - |
| 1787946815 | 27.22° C | 48% | 1019.1 hPa | 0 mm | - | 433 W/m² | - |
| 1787946513 | 27.22° C | 47% | 1018.8 hPa | 0 mm | - | 437 W/m² | - |
| 1787946209 | 26.67° C | 48% | 1019 hPa | 0 mm | - | 294 W/m² | - |
| 1787945908 | 26.67° C | 48% | 1019 hPa | 0 mm | - | 274 W/m² | - |
| 1787945604 | 26.67° C | 47% | 1019 hPa | 0 mm | - | 295 W/m² | - |
| 1787945299 | 26.11° C | 48% | 1019 hPa | 0 mm | - | 278 W/m² | - |
| 1787944993 | 26.67° C | 46% | 1019 hPa | 0 mm | - | 299 W/m² | - |
| 1787944691 | 26.67° C | 48% | 1019.1 hPa | 0 mm | - | 321 W/m² | - |
| 1787944387 | 26.67° C | 46% | 1019 hPa | 0 mm | - | 365 W/m² | - |
| 1787944081 | 26.67° C | 46% | 1019.1 hPa | 0 mm | - | 387 W/m² | - |
| 1787943777 | 27.22° C | 46% | 1019.1 hPa | 0 mm | - | 312 W/m² | - |
| 1787943472 | 27.22° C | 46% | 1019.1 hPa | 0 mm | - | 407 W/m² | - |
| 1787943167 | 26.67° C | 47% | 1019.2 hPa | 0 mm | - | 337 W/m² | - |
| 1787942861 | 26.67° C | 46% | 1019.1 hPa | 0 mm | - | 436 W/m² | - |
| 1787942558 | 27.22° C | 45% | 1019.1 hPa | 0 mm | - | 564 W/m² | - |
| 1787942257 | 26.11° C | 47% | 1019.3 hPa | 0 mm | - | 475 W/m² | - |
| 1787941952 | 26.67° C | 47% | 1019.4 hPa | 0 mm | - | 356 W/m² | - |
| 1787941651 | 26.11° C | 47% | 1019.6 hPa | 0 mm | - | 465 W/m² | - |
| 1787941346 | 26.67° C | 47% | 1019.4 hPa | 0 mm | - | 379 W/m² | - |
| 1787941040 | 27.22° C | 46% | 1019.8 hPa | 0 mm | - | 388 W/m² | - |
| 1787940739 | 26.67° C | 49% | 1019.7 hPa | 0 mm | - | 507 W/m² | - |
| 1787940437 | 26.11° C | 48% | 1019.7 hPa | 0 mm | - | 471 W/m² | - |
| 1787940132 | 26.67° C | 47% | 1019.7 hPa | 0 mm | - | 506 W/m² | - |
* Rain latest hour (hover to see other rain measurements)
** Current wind speed in m/s (hover to see current wind gust speed)